sensor_id;sensor_type;location;lat;lon;timestamp;temperature;humidity
16827;DHT22;8530;49.540;8.576;2023-05-14T00:01:04;13.80;98.00
16827;DHT22;8530;49.540;8.576;2023-05-14T00:03:32;13.80;98.00
16827;DHT22;8530;49.540;8.576;2023-05-14T00:05:59;13.80;98.00
16827;DHT22;8530;49.540;8.576;2023-05-14T00:08:26;13.70;98.00
16827;DHT22;8530;49.540;8.576;2023-05-14T00:10:53;13.70;98.00
16827;DHT22;8530;49.540;8.576;2023-05-14T00:13:20;13.60;98.00
16827;DHT22;8530;49.540;8.576;2023-05-14T00:15:46;13.60;98.10
16827;DHT22;8530;49.540;8.576;2023-05-14T00:18:14;13.60;98.10
16827;DHT22;8530;49.540;8.576;2023-05-14T00:20:41;13.50;98.10
16827;DHT22;8530;49.540;8.576;2023-05-14T00:23:08;13.50;98.20
16827;DHT22;8530;49.540;8.576;2023-05-14T00:25:35;13.50;98.30
16827;DHT22;8530;49.540;8.576;2023-05-14T00:28:02;13.50;98.30
16827;DHT22;8530;49.540;8.576;2023-05-14T00:30:29;13.50;98.30
16827;DHT22;8530;49.540;8.576;2023-05-14T00:32:55;13.50;98.40
16827;DHT22;8530;49.540;8.576;2023-05-14T00:35:23;13.60;98.40
16827;DHT22;8530;49.540;8.576;2023-05-14T00:37:50;13.60;98.30
16827;DHT22;8530;49.540;8.576;2023-05-14T00:40:17;13.70;98.40
16827;DHT22;8530;49.540;8.576;2023-05-14T00:42:44;13.70;98.30
16827;DHT22;8530;49.540;8.576;2023-05-14T00:45:10;13.70;98.30
16827;DHT22;8530;49.540;8.576;2023-05-14T00:47:37;13.70;98.30
16827;DHT22;8530;49.540;8.576;2023-05-14T00:50:05;13.70;98.30
16827;DHT22;8530;49.540;8.576;2023-05-14T00:52:34;13.70;98.30
16827;DHT22;8530;49.540;8.576;2023-05-14T00:55:03;13.70;98.30
16827;DHT22;8530;49.540;8.576;2023-05-14T00:57:31;13.70;98.30
16827;DHT22;8530;49.540;8.576;2023-05-14T00:59:58;13.70;98.30
16827;DHT22;8530;49.540;8.576;2023-05-14T01:02:25;13.60;98.30
16827;DHT22;8530;49.540;8.576;2023-05-14T01:04:52;13.60;98.30
16827;DHT22;8530;49.540;8.576;2023-05-14T01:07:25;13.50;98.30
16827;DHT22;8530;49.540;8.576;2023-05-14T01:10:00;13.40;98.30
16827;DHT22;8530;49.540;8.576;2023-05-14T01:12:33;13.40;98.30
16827;DHT22;8530;49.540;8.576;2023-05-14T01:15:06;13.30;98.30
16827;DHT22;8530;49.540;8.576;2023-05-14T01:17:38;13.30;98.40
16827;DHT22;8530;49.540;8.576;2023-05-14T01:20:07;13.20;98.40
16827;DHT22;8530;49.540;8.576;2023-05-14T01:22:35;13.20;98.50
16827;DHT22;8530;49.540;8.576;2023-05-14T01:25:02;13.20;98.50
16827;DHT22;8530;49.540;8.576;2023-05-14T01:27:35;13.10;98.50
16827;DHT22;8530;49.540;8.576;2023-05-14T01:30:12;13.10;98.60
16827;DHT22;8530;49.540;8.576;2023-05-14T01:32:42;13.10;98.60
16827;DHT22;8530;49.540;8.576;2023-05-14T01:35:10;13.00;98.70
16827;DHT22;8530;49.540;8.576;2023-05-14T01:37:39;13.00;98.70
16827;DHT22;8530;49.540;8.576;2023-05-14T01:40:07;13.00;98.70
16827;DHT22;8530;49.540;8.576;2023-05-14T01:42:35;13.00;98.80
16827;DHT22;8530;49.540;8.576;2023-05-14T01:45:02;12.90;98.80
16827;DHT22;8530;49.540;8.576;2023-05-14T01:47:29;12.90;98.80
16827;DHT22;8530;49.540;8.576;2023-05-14T01:49:56;12.80;98.80
16827;DHT22;8530;49.540;8.576;2023-05-14T01:52:22;12.80;98.80
16827;DHT22;8530;49.540;8.576;2023-05-14T01:54:50;12.80;98.90
16827;DHT22;8530;49.540;8.576;2023-05-14T01:57:17;12.70;98.90
16827;DHT22;8530;49.540;8.576;2023-05-14T01:59:44;12.60;98.90
16827;DHT22;8530;49.540;8.576;2023-05-14T02:02:10;12.60;99.00
16827;DHT22;8530;49.540;8.576;2023-05-14T02:04:37;12.50;99.00
16827;DHT22;8530;49.540;8.576;2023-05-14T02:07:04;12.40;99.00
16827;DHT22;8530;49.540;8.576;2023-05-14T02:09:30;12.40;99.10
16827;DHT22;8530;49.540;8.576;2023-05-14T02:11:59;12.40;99.20
16827;DHT22;8530;49.540;8.576;2023-05-14T02:14:25;12.30;99.20
16827;DHT22;8530;49.540;8.576;2023-05-14T02:16:52;12.30;99.30
16827;DHT22;8530;49.540;8.576;2023-05-14T02:19:19;12.20;99.30
16827;DHT22;8530;49.540;8.576;2023-05-14T02:21:46;12.10;99.30
16827;DHT22;8530;49.540;8.576;2023-05-14T02:24:13;12.00;99.40
16827;DHT22;8530;49.540;8.576;2023-05-14T02:26:39;12.00;99.40
16827;DHT22;8530;49.540;8.576;2023-05-14T02:29:07;11.90;99.50
16827;DHT22;8530;49.540;8.576;2023-05-14T02:31:34;11.80;99.50
16827;DHT22;8530;49.540;8.576;2023-05-14T02:34:01;11.70;99.50
16827;DHT22;8530;49.540;8.576;2023-05-14T02:36:28;11.60;99.60
16827;DHT22;8530;49.540;8.576;2023-05-14T02:38:57;11.60;99.70
16827;DHT22;8530;49.540;8.576;2023-05-14T02:41:24;11.50;99.70
16827;DHT22;8530;49.540;8.576;2023-05-14T02:43:51;11.50;99.80
16827;DHT22;8530;49.540;8.576;2023-05-14T02:46:19;11.40;99.90
16827;DHT22;8530;49.540;8.576;2023-05-14T02:48:46;11.40;99.90
16827;DHT22;8530;49.540;8.576;2023-05-14T02:51:12;11.30;99.90
16827;DHT22;8530;49.540;8.576;2023-05-14T02:53:39;11.30;99.90
16827;DHT22;8530;49.540;8.576;2023-05-14T02:56:06;11.30;99.90
16827;DHT22;8530;49.540;8.576;2023-05-14T02:58:33;11.20;99.90
16827;DHT22;8530;49.540;8.576;2023-05-14T03:00:59;11.20;99.90
16827;DHT22;8530;49.540;8.576;2023-05-14T03:03:28;11.10;99.90
16827;DHT22;8530;49.540;8.576;2023-05-14T03:05:55;11.10;99.90
16827;DHT22;8530;49.540;8.576;2023-05-14T03:08:21;11.00;99.90
16827;DHT22;8530;49.540;8.576;2023-05-14T03:10:48;11.00;99.90
16827;DHT22;8530;49.540;8.576;2023-05-14T03:13:15;11.00;99.90
16827;DHT22;8530;49.540;8.576;2023-05-14T03:15:44;10.90;99.90
16827;DHT22;8530;49.540;8.576;2023-05-14T03:18:11;10.90;99.90
16827;DHT22;8530;49.540;8.576;2023-05-14T03:20:39;10.90;99.90
16827;DHT22;8530;49.540;8.576;2023-05-14T03:23:06;10.90;99.90
16827;DHT22;8530;49.540;8.576;2023-05-14T03:25:33;10.90;99.90
16827;DHT22;8530;49.540;8.576;2023-05-14T03:28:00;10.90;99.90
16827;DHT22;8530;49.540;8.576;2023-05-14T03:30:26;10.80;99.90
16827;DHT22;8530;49.540;8.576;2023-05-14T03:32:53;10.80;99.90
16827;DHT22;8530;49.540;8.576;2023-05-14T03:35:20;10.70;99.90
16827;DHT22;8530;49.540;8.576;2023-05-14T03:37:48;10.70;99.90
16827;DHT22;8530;49.540;8.576;2023-05-14T03:40:15;10.70;99.90
16827;DHT22;8530;49.540;8.576;2023-05-14T03:42:42;10.60;99.90
16827;DHT22;8530;49.540;8.576;2023-05-14T03:45:09;10.60;99.90
16827;DHT22;8530;49.540;8.576;2023-05-14T03:47:36;10.60;99.90
16827;DHT22;8530;49.540;8.576;2023-05-14T03:50:03;10.50;99.90
16827;DHT22;8530;49.540;8.576;2023-05-14T03:52:29;10.50;99.90
16827;DHT22;8530;49.540;8.576;2023-05-14T03:54:57;10.50;99.90
16827;DHT22;8530;49.540;8.576;2023-05-14T03:57:24;10.50;99.90
16827;DHT22;8530;49.540;8.576;2023-05-14T03:59:51;10.50;99.90
16827;DHT22;8530;49.540;8.576;2023-05-14T04:02:18;10.50;99.90
16827;DHT22;8530;49.540;8.576;2023-05-14T04:04:44;10.50;99.90
16827;DHT22;8530;49.540;8.576;2023-05-14T04:07:11;10.60;99.90
16827;DHT22;8530;49.540;8.576;2023-05-14T04:09:38;10.60;99.90
16827;DHT22;8530;49.540;8.576;2023-05-14T04:12:07;10.60;99.90
16827;DHT22;8530;49.540;8.576;2023-05-14T04:14:34;10.70;99.90
16827;DHT22;8530;49.540;8.576;2023-05-14T04:17:00;10.70;99.90
16827;DHT22;8530;49.540;8.576;2023-05-14T04:19:28;10.80;99.90
16827;DHT22;8530;49.540;8.576;2023-05-14T04:21:54;10.90;99.90
16827;DHT22;8530;49.540;8.576;2023-05-14T04:24:21;11.00;99.90
16827;DHT22;8530;49.540;8.576;2023-05-14T04:26:48;11.10;99.90
16827;DHT22;8530;49.540;8.576;2023-05-14T04:29:16;11.30;99.90
16827;DHT22;8530;49.540;8.576;2023-05-14T04:31:44;11.40;99.90
16827;DHT22;8530;49.540;8.576;2023-05-14T04:34:10;11.60;99.90
16827;DHT22;8530;49.540;8.576;2023-05-14T04:36:37;11.80;99.90
16827;DHT22;8530;49.540;8.576;2023-05-14T04:39:04;12.00;99.90
16827;DHT22;8530;49.540;8.576;2023-05-14T04:41:31;12.20;99.90
16827;DHT22;8530;49.540;8.576;2023-05-14T04:43:58;12.30;99.90
16827;DHT22;8530;49.540;8.576;2023-05-14T04:46:27;12.50;99.90
16827;DHT22;8530;49.540;8.576;2023-05-14T04:48:53;12.60;99.90
16827;DHT22;8530;49.540;8.576;2023-05-14T04:51:20;12.70;99.90
16827;DHT22;8530;49.540;8.576;2023-05-14T04:53:47;12.80;99.90
16827;DHT22;8530;49.540;8.576;2023-05-14T04:56:14;12.90;99.90
16827;DHT22;8530;49.540;8.576;2023-05-14T04:58:40;13.10;99.90
16827;DHT22;8530;49.540;8.576;2023-05-14T05:01:07;13.20;99.90
16827;DHT22;8530;49.540;8.576;2023-05-14T05:03:35;13.40;99.90
16827;DHT22;8530;49.540;8.576;2023-05-14T05:06:02;13.50;99.90
16827;DHT22;8530;49.540;8.576;2023-05-14T05:08:29;13.70;99.90
16827;DHT22;8530;49.540;8.576;2023-05-14T05:10:56;13.90;99.90
16827;DHT22;8530;49.540;8.576;2023-05-14T05:13:23;14.00;99.90
16827;DHT22;8530;49.540;8.576;2023-05-14T05:15:50;14.10;99.90
16827;DHT22;8530;49.540;8.576;2023-05-14T05:18:16;14.20;99.90
16827;DHT22;8530;49.540;8.576;2023-05-14T05:20:44;14.30;99.90
16827;DHT22;8530;49.540;8.576;2023-05-14T05:23:11;14.30;99.90
16827;DHT22;8530;49.540;8.576;2023-05-14T05:25:38;14.40;99.90
16827;DHT22;8530;49.540;8.576;2023-05-14T05:28:04;14.50;99.90
16827;DHT22;8530;49.540;8.576;2023-05-14T05:30:31;14.50;99.90
16827;DHT22;8530;49.540;8.576;2023-05-14T05:32:58;14.60;99.80
16827;DHT22;8530;49.540;8.576;2023-05-14T05:35:24;14.70;99.80
16827;DHT22;8530;49.540;8.576;2023-05-14T05:37:52;14.70;99.70
16827;DHT22;8530;49.540;8.576;2023-05-14T05:40:19;14.80;99.60
16827;DHT22;8530;49.540;8.576;2023-05-14T05:42:46;14.90;99.50
16827;DHT22;8530;49.540;8.576;2023-05-14T05:45:12;14.90;99.40
16827;DHT22;8530;49.540;8.576;2023-05-14T05:47:39;15.00;99.30
16827;DHT22;8530;49.540;8.576;2023-05-14T05:50:07;15.00;99.20
16827;DHT22;8530;49.540;8.576;2023-05-14T05:52:34;15.00;99.00
16827;DHT22;8530;49.540;8.576;2023-05-14T05:55:02;15.10;99.00
16827;DHT22;8530;49.540;8.576;2023-05-14T05:57:29;15.10;98.80
16827;DHT22;8530;49.540;8.576;2023-05-14T05:59:55;15.20;98.80
16827;DHT22;8530;49.540;8.576;2023-05-14T06:02:22;15.30;98.70
16827;DHT22;8530;49.540;8.576;2023-05-14T06:04:49;15.40;98.60
16827;DHT22;8530;49.540;8.576;2023-05-14T06:07:17;15.70;98.50
16827;DHT22;8530;49.540;8.576;2023-05-14T06:09:44;16.00;98.40
16827;DHT22;8530;49.540;8.576;2023-05-14T06:12:12;16.30;98.30
16827;DHT22;8530;49.540;8.576;2023-05-14T06:14:38;16.70;98.10
16827;DHT22;8530;49.540;8.576;2023-05-14T06:17:05;17.20;98.00
16827;DHT22;8530;49.540;8.576;2023-05-14T06:19:32;17.60;97.70
16827;DHT22;8530;49.540;8.576;2023-05-14T06:21:58;18.10;97.40
16827;DHT22;8530;49.540;8.576;2023-05-14T06:24:25;18.50;97.00
16827;DHT22;8530;49.540;8.576;2023-05-14T06:26:52;18.80;96.60
16827;DHT22;8530;49.540;8.576;2023-05-14T06:29:20;19.20;96.20
16827;DHT22;8530;49.540;8.576;2023-05-14T06:31:46;19.60;95.70
16827;DHT22;8530;49.540;8.576;2023-05-14T06:34:13;19.90;95.20
16827;DHT22;8530;49.540;8.576;2023-05-14T06:36:40;20.30;94.70
16827;DHT22;8530;49.540;8.576;2023-05-14T06:39:06;20.50;94.00
16827;DHT22;8530;49.540;8.576;2023-05-14T06:41:33;20.60;93.30
16827;DHT22;8530;49.540;8.576;2023-05-14T06:44:00;20.70;92.50
16827;DHT22;8530;49.540;8.576;2023-05-14T06:46:28;20.80;91.90
16827;DHT22;8530;49.540;8.576;2023-05-14T06:48:54;21.00;91.10
16827;DHT22;8530;49.540;8.576;2023-05-14T06:51:21;21.40;90.90
16827;DHT22;8530;49.540;8.576;2023-05-14T06:53:48;22.40;91.00
16827;DHT22;8530;49.540;8.576;2023-05-14T06:56:15;24.40;91.60
16827;DHT22;8530;49.540;8.576;2023-05-14T06:58:42;26.90;90.50
16827;DHT22;8530;49.540;8.576;2023-05-14T07:01:09;29.40;83.80
16827;DHT22;8530;49.540;8.576;2023-05-14T07:03:37;31.50;73.60
16827;DHT22;8530;49.540;8.576;2023-05-14T07:06:03;33.10;61.10
16827;DHT22;8530;49.540;8.576;2023-05-14T07:08:31;34.50;53.10
16827;DHT22;8530;49.540;8.576;2023-05-14T07:10:57;35.60;46.70
16827;DHT22;8530;49.540;8.576;2023-05-14T07:13:25;36.40;42.70
16827;DHT22;8530;49.540;8.576;2023-05-14T07:15:52;37.50;38.00
16827;DHT22;8530;49.540;8.576;2023-05-14T07:18:20;38.30;34.80
16827;DHT22;8530;49.540;8.576;2023-05-14T07:20:48;39.10;31.70
16827;DHT22;8530;49.540;8.576;2023-05-14T07:23:15;39.70;29.20
16827;DHT22;8530;49.540;8.576;2023-05-14T07:25:42;40.30;28.20
16827;DHT22;8530;49.540;8.576;2023-05-14T07:28:09;40.50;26.20
16827;DHT22;8530;49.540;8.576;2023-05-14T07:30:35;40.50;25.30
16827;DHT22;8530;49.540;8.576;2023-05-14T07:33:02;40.60;24.40
16827;DHT22;8530;49.540;8.576;2023-05-14T07:35:28;40.70;23.60
16827;DHT22;8530;49.540;8.576;2023-05-14T07:37:56;40.90;23.00
16827;DHT22;8530;49.540;8.576;2023-05-14T07:40:23;40.90;22.50
16827;DHT22;8530;49.540;8.576;2023-05-14T07:42:50;41.30;21.90
16827;DHT22;8530;49.540;8.576;2023-05-14T07:45:17;41.20;21.40
16827;DHT22;8530;49.540;8.576;2023-05-14T07:47:43;41.20;20.70
16827;DHT22;8530;49.540;8.576;2023-05-14T07:50:10;41.00;20.20
16827;DHT22;8530;49.540;8.576;2023-05-14T07:52:37;40.80;19.90
16827;DHT22;8530;49.540;8.576;2023-05-14T07:55:06;40.80;19.80
16827;DHT22;8530;49.540;8.576;2023-05-14T07:57:33;41.20;19.30
16827;DHT22;8530;49.540;8.576;2023-05-14T07:59:59;41.20;18.70
16827;DHT22;8530;49.540;8.576;2023-05-14T08:02:26;40.80;18.30
16827;DHT22;8530;49.540;8.576;2023-05-14T08:04:53;40.70;17.90
16827;DHT22;8530;49.540;8.576;2023-05-14T08:07:20;40.30;17.50
16827;DHT22;8530;49.540;8.576;2023-05-14T08:09:47;40.10;17.30
16827;DHT22;8530;49.540;8.576;2023-05-14T08:12:15;40.10;16.80
16827;DHT22;8530;49.540;8.576;2023-05-14T08:14:42;39.30;16.50
16827;DHT22;8530;49.540;8.576;2023-05-14T08:17:09;38.40;16.50
16827;DHT22;8530;49.540;8.576;2023-05-14T08:19:35;37.10;16.40
16827;DHT22;8530;49.540;8.576;2023-05-14T08:22:02;35.40;16.70
16827;DHT22;8530;49.540;8.576;2023-05-14T08:24:30;33.60;17.00
16827;DHT22;8530;49.540;8.576;2023-05-14T08:26:56;31.80;17.50
16827;DHT22;8530;49.540;8.576;2023-05-14T08:29:24;30.50;18.20
16827;DHT22;8530;49.540;8.576;2023-05-14T08:31:51;29.40;19.00
16827;DHT22;8530;49.540;8.576;2023-05-14T08:34:18;27.80;20.00
16827;DHT22;8530;49.540;8.576;2023-05-14T08:36:45;26.70;20.80
16827;DHT22;8530;49.540;8.576;2023-05-14T08:39:11;25.80;21.80
16827;DHT22;8530;49.540;8.576;2023-05-14T08:41:39;25.10;22.60
16827;DHT22;8530;49.540;8.576;2023-05-14T08:44:07;24.70;23.30
16827;DHT22;8530;49.540;8.576;2023-05-14T08:46:37;24.50;24.10
16827;DHT22;8530;49.540;8.576;2023-05-14T08:49:13;24.30;24.90
16827;DHT22;8530;49.540;8.576;2023-05-14T08:51:42;24.00;25.70
16827;DHT22;8530;49.540;8.576;2023-05-14T08:54:09;23.70;26.20
16827;DHT22;8530;49.540;8.576;2023-05-14T08:56:39;23.60;26.80
16827;DHT22;8530;49.540;8.576;2023-05-14T08:59:07;23.60;27.30
16827;DHT22;8530;49.540;8.576;2023-05-14T09:01:34;23.70;27.70
16827;DHT22;8530;49.540;8.576;2023-05-14T09:04:03;23.50;28.00
16827;DHT22;8530;49.540;8.576;2023-05-14T09:06:33;23.50;28.50
16827;DHT22;8530;49.540;8.576;2023-05-14T09:09:00;23.50;28.70
16827;DHT22;8530;49.540;8.576;2023-05-14T09:11:27;23.20;28.80
16827;DHT22;8530;49.540;8.576;2023-05-14T09:13:53;22.90;29.00
16827;DHT22;8530;49.540;8.576;2023-05-14T09:16:20;22.60;29.40
16827;DHT22;8530;49.540;8.576;2023-05-14T09:18:47;22.40;29.80
16827;DHT22;8530;49.540;8.576;2023-05-14T09:21:17;22.30;30.10
16827;DHT22;8530;49.540;8.576;2023-05-14T09:23:44;22.50;31.20
16827;DHT22;8530;49.540;8.576;2023-05-14T09:26:16;23.00;30.90
16827;DHT22;8530;49.540;8.576;2023-05-14T09:28:43;23.50;31.00
16827;DHT22;8530;49.540;8.576;2023-05-14T09:31:10;23.70;30.90
16827;DHT22;8530;49.540;8.576;2023-05-14T09:33:37;23.70;31.00
16827;DHT22;8530;49.540;8.576;2023-05-14T09:36:04;23.60;31.00
16827;DHT22;8530;49.540;8.576;2023-05-14T09:38:33;23.70;31.30
16827;DHT22;8530;49.540;8.576;2023-05-14T09:41:00;23.80;31.50
16827;DHT22;8530;49.540;8.576;2023-05-14T09:43:26;24.00;31.60
16827;DHT22;8530;49.540;8.576;2023-05-14T09:45:53;24.00;31.60
16827;DHT22;8530;49.540;8.576;2023-05-14T09:48:20;24.00;31.50
16827;DHT22;8530;49.540;8.576;2023-05-14T09:50:47;23.90;31.60
16827;DHT22;8530;49.540;8.576;2023-05-14T09:53:14;24.00;31.70
16827;DHT22;8530;49.540;8.576;2023-05-14T09:55:44;23.90;31.70
16827;DHT22;8530;49.540;8.576;2023-05-14T09:58:11;23.80;31.80
16827;DHT22;8530;49.540;8.576;2023-05-14T10:00:39;23.90;31.90
16827;DHT22;8530;49.540;8.576;2023-05-14T10:03:11;24.00;32.10
16827;DHT22;8530;49.540;8.576;2023-05-14T10:05:40;24.20;32.10
16827;DHT22;8530;49.540;8.576;2023-05-14T10:08:11;24.40;32.20
16827;DHT22;8530;49.540;8.576;2023-05-14T10:10:38;24.50;32.20
16827;DHT22;8530;49.540;8.576;2023-05-14T10:13:13;24.60;32.10
16827;DHT22;8530;49.540;8.576;2023-05-14T10:15:44;24.40;32.00
16827;DHT22;8530;49.540;8.576;2023-05-14T10:18:16;24.30;32.10
16827;DHT22;8530;49.540;8.576;2023-05-14T10:20:46;24.10;32.20
16827;DHT22;8530;49.540;8.576;2023-05-14T10:23:13;24.00;32.50
16827;DHT22;8530;49.540;8.576;2023-05-14T10:25:40;23.90;32.60
16827;DHT22;8530;49.540;8.576;2023-05-14T10:28:09;23.90;32.80
16827;DHT22;8530;49.540;8.576;2023-05-14T10:30:42;23.90;33.00
16827;DHT22;8530;49.540;8.576;2023-05-14T10:33:11;23.90;33.10
16827;DHT22;8530;49.540;8.576;2023-05-14T10:35:56;23.70;33.00
16827;DHT22;8530;49.540;8.576;2023-05-14T10:38:25;23.50;33.20
16827;DHT22;8530;49.540;8.576;2023-05-14T10:41:00;23.40;33.40
16827;DHT22;8530;49.540;8.576;2023-05-14T10:43:30;23.50;33.60
16827;DHT22;8530;49.540;8.576;2023-05-14T10:45:59;23.60;33.70
16827;DHT22;8530;49.540;8.576;2023-05-14T10:48:27;23.50;33.60
16827;DHT22;8530;49.540;8.576;2023-05-14T10:50:57;23.50;33.80
16827;DHT22;8530;49.540;8.576;2023-05-14T10:53:35;23.60;34.00
16827;DHT22;8530;49.540;8.576;2023-05-14T10:56:03;23.60;34.10
16827;DHT22;8530;49.540;8.576;2023-05-14T10:58:34;23.70;34.10
16827;DHT22;8530;49.540;8.576;2023-05-14T11:01:01;23.70;34.00
16827;DHT22;8530;49.540;8.576;2023-05-14T11:03:30;23.70;34.00
16827;DHT22;8530;49.540;8.576;2023-05-14T11:05:59;23.80;34.00
16827;DHT22;8530;49.540;8.576;2023-05-14T11:08:28;23.90;33.90
16827;DHT22;8530;49.540;8.576;2023-05-14T11:10:56;23.80;33.70
16827;DHT22;8530;49.540;8.576;2023-05-14T11:13:25;24.00;34.00
16827;DHT22;8530;49.540;8.576;2023-05-14T11:15:53;24.10;34.10
16827;DHT22;8530;49.540;8.576;2023-05-14T11:18:27;24.10;34.00
16827;DHT22;8530;49.540;8.576;2023-05-14T11:20:57;24.20;34.00
16827;DHT22;8530;49.540;8.576;2023-05-14T11:23:24;24.20;33.90
16827;DHT22;8530;49.540;8.576;2023-05-14T11:25:52;24.20;34.00
16827;DHT22;8530;49.540;8.576;2023-05-14T11:28:20;24.20;34.20
16827;DHT22;8530;49.540;8.576;2023-05-14T11:30:47;24.40;34.30
16827;DHT22;8530;49.540;8.576;2023-05-14T11:33:16;24.60;34.30
16827;DHT22;8530;49.540;8.576;2023-05-14T11:35:43;24.60;34.20
16827;DHT22;8530;49.540;8.576;2023-05-14T11:38:14;24.70;34.10
16827;DHT22;8530;49.540;8.576;2023-05-14T11:40:41;24.90;34.00
16827;DHT22;8530;49.540;8.576;2023-05-14T11:43:08;25.10;33.90
16827;DHT22;8530;49.540;8.576;2023-05-14T11:45:35;25.30;33.70
16827;DHT22;8530;49.540;8.576;2023-05-14T11:48:10;25.40;33.40
16827;DHT22;8530;49.540;8.576;2023-05-14T11:50:38;25.50;33.00
16827;DHT22;8530;49.540;8.576;2023-05-14T11:53:05;25.50;32.80
16827;DHT22;8530;49.540;8.576;2023-05-14T11:55:33;25.60;32.70
16827;DHT22;8530;49.540;8.576;2023-05-14T11:58:00;25.60;32.40
16827;DHT22;8530;49.540;8.576;2023-05-14T12:00:27;25.60;32.40
16827;DHT22;8530;49.540;8.576;2023-05-14T12:02:55;25.40;32.30
16827;DHT22;8530;49.540;8.576;2023-05-14T12:05:22;25.30;32.40
16827;DHT22;8530;49.540;8.576;2023-05-14T12:07:50;25.30;32.70
16827;DHT22;8530;49.540;8.576;2023-05-14T12:10:17;25.20;32.70
16827;DHT22;8530;49.540;8.576;2023-05-14T12:12:45;25.20;32.80
16827;DHT22;8530;49.540;8.576;2023-05-14T12:15:14;25.30;32.90
16827;DHT22;8530;49.540;8.576;2023-05-14T12:17:41;25.30;32.70
16827;DHT22;8530;49.540;8.576;2023-05-14T12:20:09;25.30;32.70
16827;DHT22;8530;49.540;8.576;2023-05-14T12:22:37;25.20;32.70
16827;DHT22;8530;49.540;8.576;2023-05-14T12:25:10;25.20;32.80
16827;DHT22;8530;49.540;8.576;2023-05-14T12:27:37;25.20;32.80
16827;DHT22;8530;49.540;8.576;2023-05-14T12:30:06;25.20;32.90
16827;DHT22;8530;49.540;8.576;2023-05-14T12:32:33;25.00;32.70
16827;DHT22;8530;49.540;8.576;2023-05-14T12:35:00;24.90;32.60
16827;DHT22;8530;49.540;8.576;2023-05-14T12:37:27;24.80;32.60
16827;DHT22;8530;49.540;8.576;2023-05-14T12:39:53;24.80;32.70
16827;DHT22;8530;49.540;8.576;2023-05-14T12:42:21;24.80;32.70
16827;DHT22;8530;49.540;8.576;2023-05-14T12:44:48;24.60;32.70
16827;DHT22;8530;49.540;8.576;2023-05-14T12:47:15;24.50;32.70
16827;DHT22;8530;49.540;8.576;2023-05-14T12:49:43;24.30;32.70
16827;DHT22;8530;49.540;8.576;2023-05-14T12:52:10;24.10;32.80
16827;DHT22;8530;49.540;8.576;2023-05-14T12:54:36;23.90;33.00
16827;DHT22;8530;49.540;8.576;2023-05-14T12:57:05;23.70;33.20
16827;DHT22;8530;49.540;8.576;2023-05-14T12:59:33;23.70;33.50
16827;DHT22;8530;49.540;8.576;2023-05-14T13:02:00;23.60;33.60
16827;DHT22;8530;49.540;8.576;2023-05-14T13:04:26;23.40;33.70
16827;DHT22;8530;49.540;8.576;2023-05-14T13:06:53;23.20;33.80
16827;DHT22;8530;49.540;8.576;2023-05-14T13:09:20;23.20;34.20
16827;DHT22;8530;49.540;8.576;2023-05-14T13:11:47;23.50;34.30
16827;DHT22;8530;49.540;8.576;2023-05-14T13:14:13;23.70;34.30
16827;DHT22;8530;49.540;8.576;2023-05-14T13:16:41;23.70;34.20
16827;DHT22;8530;49.540;8.576;2023-05-14T13:19:08;23.50;34.30
16827;DHT22;8530;49.540;8.576;2023-05-14T13:21:35;23.70;34.60
16827;DHT22;8530;49.540;8.576;2023-05-14T13:24:01;23.80;34.60
16827;DHT22;8530;49.540;8.576;2023-05-14T13:26:28;23.90;34.60
16827;DHT22;8530;49.540;8.576;2023-05-14T13:28:55;23.70;34.40
16827;DHT22;8530;49.540;8.576;2023-05-14T13:31:22;23.20;34.50
16827;DHT22;8530;49.540;8.576;2023-05-14T13:33:50;22.90;34.90
16827;DHT22;8530;49.540;8.576;2023-05-14T13:36:17;22.70;35.20
16827;DHT22;8530;49.540;8.576;2023-05-14T13:38:43;22.50;35.40
16827;DHT22;8530;49.540;8.576;2023-05-14T13:41:11;22.40;35.90
16827;DHT22;8530;49.540;8.576;2023-05-14T13:43:38;22.20;36.30
16827;DHT22;8530;49.540;8.576;2023-05-14T13:46:04;22.40;36.50
16827;DHT22;8530;49.540;8.576;2023-05-14T13:48:32;22.60;36.70
16827;DHT22;8530;49.540;8.576;2023-05-14T13:51:00;22.90;36.70
16827;DHT22;8530;49.540;8.576;2023-05-14T13:53:26;23.00;36.50
16827;DHT22;8530;49.540;8.576;2023-05-14T13:55:53;23.10;36.50
16827;DHT22;8530;49.540;8.576;2023-05-14T13:58:23;23.20;36.60
16827;DHT22;8530;49.540;8.576;2023-05-14T14:00:50;23.20;36.60
16827;DHT22;8530;49.540;8.576;2023-05-14T14:03:17;23.20;36.50
16827;DHT22;8530;49.540;8.576;2023-05-14T14:05:43;23.30;36.60
16827;DHT22;8530;49.540;8.576;2023-05-14T14:08:11;23.40;36.70
16827;DHT22;8530;49.540;8.576;2023-05-14T14:10:38;23.40;36.60
16827;DHT22;8530;49.540;8.576;2023-05-14T14:13:06;23.30;36.60
16827;DHT22;8530;49.540;8.576;2023-05-14T14:15:33;23.20;36.50
16827;DHT22;8530;49.540;8.576;2023-05-14T14:18:00;23.10;36.60
16827;DHT22;8530;49.540;8.576;2023-05-14T14:20:27;23.10;36.70
16827;DHT22;8530;49.540;8.576;2023-05-14T14:22:55;23.00;36.70
16827;DHT22;8530;49.540;8.576;2023-05-14T14:25:23;23.00;36.80
16827;DHT22;8530;49.540;8.576;2023-05-14T14:27:50;22.90;36.80
16827;DHT22;8530;49.540;8.576;2023-05-14T14:30:17;22.90;36.90
16827;DHT22;8530;49.540;8.576;2023-05-14T14:32:44;22.90;36.90
16827;DHT22;8530;49.540;8.576;2023-05-14T14:35:12;23.00;37.00
16827;DHT22;8530;49.540;8.576;2023-05-14T14:37:39;22.90;36.90
16827;DHT22;8530;49.540;8.576;2023-05-14T14:40:08;22.80;36.90
16827;DHT22;8530;49.540;8.576;2023-05-14T14:42:36;22.80;37.00
16827;DHT22;8530;49.540;8.576;2023-05-14T14:45:04;22.70;37.00
16827;DHT22;8530;49.540;8.576;2023-05-14T14:47:31;22.80;37.10
16827;DHT22;8530;49.540;8.576;2023-05-14T14:49:58;22.70;37.60
16827;DHT22;8530;49.540;8.576;2023-05-14T14:52:25;22.70;37.10
16827;DHT22;8530;49.540;8.576;2023-05-14T14:54:52;22.70;37.10
16827;DHT22;8530;49.540;8.576;2023-05-14T14:57:19;22.80;37.10
16827;DHT22;8530;49.540;8.576;2023-05-14T14:59:47;22.80;37.00
16827;DHT22;8530;49.540;8.576;2023-05-14T15:02:14;22.80;36.90
16827;DHT22;8530;49.540;8.576;2023-05-14T15:04:40;22.90;36.80
16827;DHT22;8530;49.540;8.576;2023-05-14T15:07:08;23.00;36.70
16827;DHT22;8530;49.540;8.576;2023-05-14T15:09:34;23.00;36.50
16827;DHT22;8530;49.540;8.576;2023-05-14T15:12:01;23.00;36.40
16827;DHT22;8530;49.540;8.576;2023-05-14T15:14:28;23.00;36.40
16827;DHT22;8530;49.540;8.576;2023-05-14T15:16:56;23.10;36.40
16827;DHT22;8530;49.540;8.576;2023-05-14T15:19:22;23.20;36.30
16827;DHT22;8530;49.540;8.576;2023-05-14T15:21:49;23.20;36.20
16827;DHT22;8530;49.540;8.576;2023-05-14T15:24:16;23.30;36.30
16827;DHT22;8530;49.540;8.576;2023-05-14T15:26:42;23.40;36.20
16827;DHT22;8530;49.540;8.576;2023-05-14T15:29:09;23.40;36.10
16827;DHT22;8530;49.540;8.576;2023-05-14T15:31:36;23.60;36.20
16827;DHT22;8530;49.540;8.576;2023-05-14T15:34:04;23.80;36.00
16827;DHT22;8530;49.540;8.576;2023-05-14T15:36:30;24.00;35.90
16827;DHT22;8530;49.540;8.576;2023-05-14T15:38:58;24.20;35.90
16827;DHT22;8530;49.540;8.576;2023-05-14T15:41:25;24.40;35.70
16827;DHT22;8530;49.540;8.576;2023-05-14T15:43:53;24.40;35.40
16827;DHT22;8530;49.540;8.576;2023-05-14T15:46:19;24.40;35.40